Palermo, Italy

9:28 AM CEST on September 16, 2014 (GMT +0200)
Punta Raisi | Change Station
CLOSE
Current Station
Airport
Location: Palermo,
Elevation: 112 ft
Nearby Weather Stations

Elev 112 ft 38.18 °N, 13.10 °E | Updated 8 minutes ago

Partly Cloudy
Partly Cloudy
77 °F
Feels Like 77 °F
N
4
Wind Variable Wind from North

Today
High -- | Low -- °F
--% Chance of Precip.
Yesterday
High -- | Low -- °F
Precip. -- in
6:49 AM 7:14 PM
Waning Gibbous, 48% visible
Pressure 29.95 in
Visibility 6.2 miles
Clouds Few 6500 ft
Dew Point 66 °F
Humidity 69%
Rainfall 0.00 in
Snow Depth Not available.
UV 2 out of 12
Pollen Not available.
Air Quality Not available.
Flu Activity Not available.
METAR LICJ 160720Z 36003KT 320V040 9999 FEW065 25/19 Q1014

More Conditions Fewer Conditions

Pressure 29.95 in
Visibility 6.2 miles
Clouds Few 6500 ft
Dew Point 66 °F
Humidity 69%
Rainfall 0.00 in
Snow Depth Not available.
UV 2 out of 12
Pollen Not available.
Air Quality Not available.
Flu Activity Not available.
METAR LICJ 160720Z 36003KT 320V040 9999 FEW065 25/19 Q1014

More Conditions Fewer Conditions

10-Day Weather Forecast

Almanac

Astronomy

Sep. 16, 2014 Rise Set
Actual Time 6:49 AM CEST 7:14 PM CEST
Civil Twilight 6:23 AM CEST 7:40 PM CEST
Nautical Twilight 5:52 AM CEST 8:11 PM CEST
Astronomical Twilight 5:20 AM CEST 8:43 PM CEST
Moon No Moon Rise 2:20 PM CEST
Length of Visible Light 13h 17m
Length of Day
12h 24m
Tomorrow will be 2m 26s shorter.
Waning Gibbous, 48% of the Moon is Illuminated
Today
Waning Gibbous
Sep 24
New
Oct 1
First Quarter
Oct 8
Full
Oct 15
Last Quarter

Yesterday's Extremes

Country Highs Country Lows

Community

WunderPhotos

Upload Photos

1,753,699 photos uploaded!

Nearby

Snow Depth

Not available.

Earthquake Activity

City Distance Mag. Time & Date
No recent earthquake activity has been reported nearby.
Minimum magnitude displayed is 2.5.

Coastal Water Temperatures

Place Temperature
No Stations Reporting

Nearby Weather Stations